sensor_id;sensor_type;location;lat;lon;timestamp;temperature;humidity
935;DHT22;454;53.254;10.400;2023-04-19T04:00:16;4.80;99.90
935;DHT22;454;53.254;10.400;2023-04-19T04:02:42;4.80;99.90
935;DHT22;454;53.254;10.400;2023-04-19T04:05:09;4.80;99.90
935;DHT22;454;53.254;10.400;2023-04-19T04:07:36;4.80;99.90
935;DHT22;454;53.254;10.400;2023-04-19T04:10:03;4.80;99.90
935;DHT22;454;53.254;10.400;2023-04-19T04:12:30;4.80;99.90
935;DHT22;454;53.254;10.400;2023-04-19T04:14:57;4.80;99.90
935;DHT22;454;53.254;10.400;2023-04-19T04:17:25;4.90;99.90
935;DHT22;454;53.254;10.400;2023-04-19T04:19:51;4.90;99.90
935;DHT22;454;53.254;10.400;2023-04-19T04:22:18;4.90;99.90
935;DHT22;454;53.254;10.400;2023-04-19T04:24:45;4.90;99.90
935;DHT22;454;53.254;10.400;2023-04-19T04:27:13;5.00;99.90
935;DHT22;454;53.254;10.400;2023-04-19T04:29:44;5.00;99.90
935;DHT22;454;53.254;10.400;2023-04-19T04:32:11;5.00;99.90
935;DHT22;454;53.254;10.400;2023-04-19T04:34:40;5.10;99.90
935;DHT22;454;53.254;10.400;2023-04-19T04:37:07;5.10;99.90
935;DHT22;454;53.254;10.400;2023-04-19T04:39:34;5.10;99.90
935;DHT22;454;53.254;10.400;2023-04-19T04:42:03;5.20;99.90
935;DHT22;454;53.254;10.400;2023-04-19T04:44:32;5.20;99.90
935;DHT22;454;53.254;10.400;2023-04-19T04:46:59;5.40;99.90
935;DHT22;454;53.254;10.400;2023-04-19T04:49:25;5.80;99.90
935;DHT22;454;53.254;10.400;2023-04-19T04:51:54;6.10;99.90
935;DHT22;454;53.254;10.400;2023-04-19T04:54:21;6.60;99.90
935;DHT22;454;53.254;10.400;2023-04-19T04:56:47;7.00;99.90
935;DHT22;454;53.254;10.400;2023-04-19T04:59:14;7.20;99.90
935;DHT22;454;53.254;10.400;2023-04-19T05:01:41;7.10;99.90
935;DHT22;454;53.254;10.400;2023-04-19T05:04:08;7.20;99.90
935;DHT22;454;53.254;10.400;2023-04-19T05:06:34;7.30;99.90
935;DHT22;454;53.254;10.400;2023-04-19T05:09:03;7.40;99.90
935;DHT22;454;53.254;10.400;2023-04-19T05:11:29;7.40;99.90
935;DHT22;454;53.254;10.400;2023-04-19T05:13:56;7.40;99.90
935;DHT22;454;53.254;10.400;2023-04-19T05:16:24;7.50;99.90
935;DHT22;454;53.254;10.400;2023-04-19T05:18:51;7.50;99.90
935;DHT22;454;53.254;10.400;2023-04-19T05:21:17;7.50;99.90
935;DHT22;454;53.254;10.400;2023-04-19T05:23:44;7.60;99.90
935;DHT22;454;53.254;10.400;2023-04-19T05:26:13;7.60;99.90
935;DHT22;454;53.254;10.400;2023-04-19T05:28:40;7.60;99.90
935;DHT22;454;53.254;10.400;2023-04-19T05:31:08;7.60;99.90
935;DHT22;454;53.254;10.400;2023-04-19T05:33:35;7.60;99.90
935;DHT22;454;53.254;10.400;2023-04-19T05:36:01;7.70;99.90
935;DHT22;454;53.254;10.400;2023-04-19T05:38:28;7.90;99.90
935;DHT22;454;53.254;10.400;2023-04-19T05:40:55;7.90;99.90
935;DHT22;454;53.254;10.400;2023-04-19T05:43:23;7.90;99.90
935;DHT22;454;53.254;10.400;2023-04-19T05:45:50;8.00;99.90
935;DHT22;454;53.254;10.400;2023-04-19T05:48:16;8.00;99.90
935;DHT22;454;53.254;10.400;2023-04-19T05:50:43;8.10;99.90
935;DHT22;454;53.254;10.400;2023-04-19T05:53:10;8.10;99.90
935;DHT22;454;53.254;10.400;2023-04-19T05:55:36;8.20;99.90
935;DHT22;454;53.254;10.400;2023-04-19T05:58:03;8.50;99.90
935;DHT22;454;53.254;10.400;2023-04-19T06:00:31;8.80;99.90
935;DHT22;454;53.254;10.400;2023-04-19T06:02:58;9.10;99.90
935;DHT22;454;53.254;10.400;2023-04-19T06:05:24;9.40;99.90
935;DHT22;454;53.254;10.400;2023-04-19T06:07:51;9.90;99.90
935;DHT22;454;53.254;10.400;2023-04-19T06:10:20;10.40;99.90
935;DHT22;454;53.254;10.400;2023-04-19T06:12:47;10.70;99.90
935;DHT22;454;53.254;10.400;2023-04-19T06:15:14;11.00;99.90
935;DHT22;454;53.254;10.400;2023-04-19T06:17:42;11.00;99.90
935;DHT22;454;53.254;10.400;2023-04-19T06:20:09;10.80;99.90
935;DHT22;454;53.254;10.400;2023-04-19T06:22:41;10.50;99.90
935;DHT22;454;53.254;10.400;2023-04-19T06:25:08;10.60;99.90
935;DHT22;454;53.254;10.400;2023-04-19T06:27:35;10.30;99.90
935;DHT22;454;53.254;10.400;2023-04-19T06:30:02;10.10;99.90
935;DHT22;454;53.254;10.400;2023-04-19T06:32:29;9.90;99.90
935;DHT22;454;53.254;10.400;2023-04-19T06:34:57;9.70;99.90
935;DHT22;454;53.254;10.400;2023-04-19T06:37:24;9.60;99.90
935;DHT22;454;53.254;10.400;2023-04-19T06:39:50;9.20;99.90
935;DHT22;454;53.254;10.400;2023-04-19T06:42:17;9.10;99.90
935;DHT22;454;53.254;10.400;2023-04-19T06:44:44;9.10;99.90
935;DHT22;454;53.254;10.400;2023-04-19T06:47:11;9.00;99.90
935;DHT22;454;53.254;10.400;2023-04-19T06:49:38;8.90;99.90
935;DHT22;454;53.254;10.400;2023-04-19T06:52:06;8.90;99.90
935;DHT22;454;53.254;10.400;2023-04-19T06:54:32;8.90;99.90
935;DHT22;454;53.254;10.400;2023-04-19T06:56:59;8.90;99.90
935;DHT22;454;53.254;10.400;2023-04-19T06:59:27;8.90;99.90
935;DHT22;454;53.254;10.400;2023-04-19T07:01:56;8.90;99.90
935;DHT22;454;53.254;10.400;2023-04-19T07:04:23;9.00;99.90
935;DHT22;454;53.254;10.400;2023-04-19T07:06:50;9.00;99.90
935;DHT22;454;53.254;10.400;2023-04-19T07:09:18;9.00;99.90
935;DHT22;454;53.254;10.400;2023-04-19T07:11:45;9.10;99.90
935;DHT22;454;53.254;10.400;2023-04-19T07:14:12;9.10;99.90
935;DHT22;454;53.254;10.400;2023-04-19T07:16:40;9.20;99.90
935;DHT22;454;53.254;10.400;2023-04-19T07:19:07;9.30;99.90
935;DHT22;454;53.254;10.400;2023-04-19T07:21:34;9.40;99.90
935;DHT22;454;53.254;10.400;2023-04-19T07:24:03;9.50;99.90
935;DHT22;454;53.254;10.400;2023-04-19T07:26:31;9.60;99.90
935;DHT22;454;53.254;10.400;2023-04-19T07:28:58;9.70;99.90
935;DHT22;454;53.254;10.400;2023-04-19T07:31:25;9.70;99.90
935;DHT22;454;53.254;10.400;2023-04-19T07:33:52;9.80;99.90
935;DHT22;454;53.254;10.400;2023-04-19T07:36:19;9.80;99.90
935;DHT22;454;53.254;10.400;2023-04-19T07:38:46;9.80;99.90
935;DHT22;454;53.254;10.400;2023-04-19T07:41:13;9.90;99.90
935;DHT22;454;53.254;10.400;2023-04-19T07:43:41;10.10;99.90
935;DHT22;454;53.254;10.400;2023-04-19T07:46:09;10.10;99.90
935;DHT22;454;53.254;10.400;2023-04-19T07:48:36;10.20;99.90
935;DHT22;454;53.254;10.400;2023-04-19T07:51:08;10.30;99.90
935;DHT22;454;53.254;10.400;2023-04-19T07:53:35;10.40;99.90
935;DHT22;454;53.254;10.400;2023-04-19T07:56:01;10.50;99.90
935;DHT22;454;53.254;10.400;2023-04-19T07:58:28;10.50;99.90
935;DHT22;454;53.254;10.400;2023-04-19T08:00:56;10.60;99.90
935;DHT22;454;53.254;10.400;2023-04-19T08:03:23;10.70;99.90
935;DHT22;454;53.254;10.400;2023-04-19T08:05:50;10.80;99.90
935;DHT22;454;53.254;10.400;2023-04-19T08:08:17;10.90;99.90
935;DHT22;454;53.254;10.400;2023-04-19T08:10:44;11.00;99.90
935;DHT22;454;53.254;10.400;2023-04-19T08:13:11;11.00;99.90
935;DHT22;454;53.254;10.400;2023-04-19T08:15:37;11.10;99.90
935;DHT22;454;53.254;10.400;2023-04-19T08:18:06;11.20;99.90
935;DHT22;454;53.254;10.400;2023-04-19T08:20:33;11.30;99.90
935;DHT22;454;53.254;10.400;2023-04-19T08:23:01;11.40;99.90
935;DHT22;454;53.254;10.400;2023-04-19T08:25:30;11.40;99.90
935;DHT22;454;53.254;10.400;2023-04-19T08:27:57;11.50;99.90
935;DHT22;454;53.254;10.400;2023-04-19T08:30:24;11.50;99.90
935;DHT22;454;53.254;10.400;2023-04-19T08:32:50;11.70;99.90
935;DHT22;454;53.254;10.400;2023-04-19T08:35:19;11.70;99.90
935;DHT22;454;53.254;10.400;2023-04-19T08:37:46;11.70;99.90
935;DHT22;454;53.254;10.400;2023-04-19T08:40:14;11.80;99.90
935;DHT22;454;53.254;10.400;2023-04-19T08:42:41;11.80;98.40
935;DHT22;454;53.254;10.400;2023-04-19T08:45:08;11.80;98.70
935;DHT22;454;53.254;10.400;2023-04-19T08:47:39;11.80;98.50
935;DHT22;454;53.254;10.400;2023-04-19T08:50:07;11.80;98.50
935;DHT22;454;53.254;10.400;2023-04-19T08:52:37;11.80;97.70
935;DHT22;454;53.254;10.400;2023-04-19T08:55:06;11.90;95.90
935;DHT22;454;53.254;10.400;2023-04-19T08:57:34;11.90;96.90
935;DHT22;454;53.254;10.400;2023-04-19T09:00:02;11.90;96.80
935;DHT22;454;53.254;10.400;2023-04-19T09:02:44;11.90;97.00
935;DHT22;454;53.254;10.400;2023-04-19T09:05:13;12.00;97.20
935;DHT22;454;53.254;10.400;2023-04-19T09:07:41;12.00;95.00
935;DHT22;454;53.254;10.400;2023-04-19T09:10:09;12.10;95.30
935;DHT22;454;53.254;10.400;2023-04-19T09:12:37;12.20;95.20
935;DHT22;454;53.254;10.400;2023-04-19T09:15:06;12.20;95.10
935;DHT22;454;53.254;10.400;2023-04-19T09:17:33;12.20;94.10
935;DHT22;454;53.254;10.400;2023-04-19T09:20:00;12.30;94.00
935;DHT22;454;53.254;10.400;2023-04-19T09:22:28;12.30;93.60
935;DHT22;454;53.254;10.400;2023-04-19T09:24:57;12.40;93.80
935;DHT22;454;53.254;10.400;2023-04-19T09:27:26;12.50;93.70
935;DHT22;454;53.254;10.400;2023-04-19T09:29:53;12.50;92.20
935;DHT22;454;53.254;10.400;2023-04-19T09:32:20;12.60;90.80
935;DHT22;454;53.254;10.400;2023-04-19T09:34:54;12.50;88.50
935;DHT22;454;53.254;10.400;2023-04-19T09:37:21;12.50;88.80
935;DHT22;454;53.254;10.400;2023-04-19T09:39:48;12.50;89.70
935;DHT22;454;53.254;10.400;2023-04-19T09:42:17;12.60;90.00
935;DHT22;454;53.254;10.400;2023-04-19T09:44:57;12.50;88.60
935;DHT22;454;53.254;10.400;2023-04-19T09:47:25;12.50;89.40
935;DHT22;454;53.254;10.400;2023-04-19T09:50:06;12.50;89.90
935;DHT22;454;53.254;10.400;2023-04-19T09:52:34;12.50;87.50
935;DHT22;454;53.254;10.400;2023-04-19T09:55:02;12.60;86.70
935;DHT22;454;53.254;10.400;2023-04-19T09:57:31;12.60;85.10
935;DHT22;454;53.254;10.400;2023-04-19T09:59:59;12.60;84.40
935;DHT22;454;53.254;10.400;2023-04-19T10:02:30;12.50;83.40
935;DHT22;454;53.254;10.400;2023-04-19T10:04:58;12.50;82.50
935;DHT22;454;53.254;10.400;2023-04-19T10:07:25;12.60;81.10
935;DHT22;454;53.254;10.400;2023-04-19T10:09:54;12.50;79.40
935;DHT22;454;53.254;10.400;2023-04-19T10:12:23;12.50;78.40
935;DHT22;454;53.254;10.400;2023-04-19T10:14:53;12.60;80.20
935;DHT22;454;53.254;10.400;2023-04-19T10:17:21;12.60;77.60
935;DHT22;454;53.254;10.400;2023-04-19T10:19:53;12.70;77.80
935;DHT22;454;53.254;10.400;2023-04-19T10:22:21;12.70;76.20
935;DHT22;454;53.254;10.400;2023-04-19T10:25:07;12.70;76.40
935;DHT22;454;53.254;10.400;2023-04-19T10:27:35;12.70;75.20
935;DHT22;454;53.254;10.400;2023-04-19T10:30:05;12.70;75.80
935;DHT22;454;53.254;10.400;2023-04-19T10:32:38;12.70;77.60
935;DHT22;454;53.254;10.400;2023-04-19T10:35:07;12.80;76.80
935;DHT22;454;53.254;10.400;2023-04-19T10:37:34;12.80;75.50
935;DHT22;454;53.254;10.400;2023-04-19T10:40:06;12.80;77.80
935;DHT22;454;53.254;10.400;2023-04-19T10:45:38;12.80;76.80
935;DHT22;454;53.254;10.400;2023-04-19T10:48:05;12.70;76.10
935;DHT22;454;53.254;10.400;2023-04-19T10:50:59;12.80;77.00
935;DHT22;454;53.254;10.400;2023-04-19T10:53:49;12.80;76.70
935;DHT22;454;53.254;10.400;2023-04-19T10:56:17;12.90;74.90
935;DHT22;454;53.254;10.400;2023-04-19T10:59:15;12.90;75.00
935;DHT22;454;53.254;10.400;2023-04-19T11:01:51;12.90;75.50
935;DHT22;454;53.254;10.400;2023-04-19T11:04:20;12.90;75.10
935;DHT22;454;53.254;10.400;2023-04-19T11:07:02;13.10;76.00
935;DHT22;454;53.254;10.400;2023-04-19T11:09:30;13.00;74.30
935;DHT22;454;53.254;10.400;2023-04-19T11:12:00;13.00;74.90
935;DHT22;454;53.254;10.400;2023-04-19T11:14:32;13.10;75.20
935;DHT22;454;53.254;10.400;2023-04-19T11:17:03;13.10;74.10
935;DHT22;454;53.254;10.400;2023-04-19T11:19:30;13.10;74.40
935;DHT22;454;53.254;10.400;2023-04-19T11:21:58;13.00;74.90
935;DHT22;454;53.254;10.400;2023-04-19T11:24:25;13.00;74.90
935;DHT22;454;53.254;10.400;2023-04-19T11:26:52;13.00;76.20
935;DHT22;454;53.254;10.400;2023-04-19T11:29:21;13.10;75.60
935;DHT22;454;53.254;10.400;2023-04-19T11:31:48;13.10;74.20
935;DHT22;454;53.254;10.400;2023-04-19T11:34:16;13.10;75.20
935;DHT22;454;53.254;10.400;2023-04-19T11:36:47;13.10;74.20
935;DHT22;454;53.254;10.400;2023-04-19T11:39:14;13.10;74.90
935;DHT22;454;53.254;10.400;2023-04-19T11:41:41;13.20;74.20
935;DHT22;454;53.254;10.400;2023-04-19T11:44:13;13.20;75.20
935;DHT22;454;53.254;10.400;2023-04-19T11:46:40;13.30;76.30
935;DHT22;454;53.254;10.400;2023-04-19T11:49:07;13.20;76.90
935;DHT22;454;53.254;10.400;2023-04-19T11:51:35;13.00;76.70
935;DHT22;454;53.254;10.400;2023-04-19T11:54:11;13.00;76.30
935;DHT22;454;53.254;10.400;2023-04-19T11:57:00;13.00;77.50
935;DHT22;454;53.254;10.400;2023-04-19T11:59:29;13.10;76.10
935;DHT22;454;53.254;10.400;2023-04-19T12:02:04;13.00;75.80
935;DHT22;454;53.254;10.400;2023-04-19T12:04:31;12.90;76.00
935;DHT22;454;53.254;10.400;2023-04-19T12:06:59;12.90;77.90
935;DHT22;454;53.254;10.400;2023-04-19T12:09:26;12.90;77.20
935;DHT22;454;53.254;10.400;2023-04-19T12:11:53;12.90;77.20
935;DHT22;454;53.254;10.400;2023-04-19T12:14:21;12.90;77.00
935;DHT22;454;53.254;10.400;2023-04-19T12:17:10;12.90;77.90
935;DHT22;454;53.254;10.400;2023-04-19T12:19:42;13.00;79.00
935;DHT22;454;53.254;10.400;2023-04-19T12:22:12;13.10;79.50
935;DHT22;454;53.254;10.400;2023-04-19T12:24:39;13.00;76.80
935;DHT22;454;53.254;10.400;2023-04-19T12:27:07;12.80;76.20
935;DHT22;454;53.254;10.400;2023-04-19T12:29:34;12.90;77.40
935;DHT22;454;53.254;10.400;2023-04-19T12:32:01;12.90;77.80
935;DHT22;454;53.254;10.400;2023-04-19T12:34:28;13.10;78.60
935;DHT22;454;53.254;10.400;2023-04-19T12:36:55;13.10;78.20
935;DHT22;454;53.254;10.400;2023-04-19T12:39:23;13.10;77.70
935;DHT22;454;53.254;10.400;2023-04-19T12:41:50;13.10;76.80
935;DHT22;454;53.254;10.400;2023-04-19T12:44:17;13.10;76.00
935;DHT22;454;53.254;10.400;2023-04-19T12:46:44;13.10;76.00
935;DHT22;454;53.254;10.400;2023-04-19T12:49:10;13.10;75.90
935;DHT22;454;53.254;10.400;2023-04-19T12:51:37;13.10;77.10
935;DHT22;454;53.254;10.400;2023-04-19T12:54:04;13.20;77.30
935;DHT22;454;53.254;10.400;2023-04-19T12:56:33;13.20;76.30
935;DHT22;454;53.254;10.400;2023-04-19T12:59:00;13.20;76.30
935;DHT22;454;53.254;10.400;2023-04-19T13:01:27;13.20;76.50
935;DHT22;454;53.254;10.400;2023-04-19T13:03:53;13.20;76.20
935;DHT22;454;53.254;10.400;2023-04-19T13:06:20;13.20;76.70
935;DHT22;454;53.254;10.400;2023-04-19T13:08:47;13.10;76.80
935;DHT22;454;53.254;10.400;2023-04-19T13:11:14;13.00;77.60
935;DHT22;454;53.254;10.400;2023-04-19T13:13:43;13.00;78.60
935;DHT22;454;53.254;10.400;2023-04-19T13:16:10;13.10;77.50
935;DHT22;454;53.254;10.400;2023-04-19T13:18:36;13.00;78.10
935;DHT22;454;53.254;10.400;2023-04-19T13:21:03;13.00;79.10
935;DHT22;454;53.254;10.400;2023-04-19T13:23:30;13.10;79.50
935;DHT22;454;53.254;10.400;2023-04-19T13:25:57;13.10;78.30
935;DHT22;454;53.254;10.400;2023-04-19T13:28:24;13.00;78.90
935;DHT22;454;53.254;10.400;2023-04-19T13:30:52;13.10;80.00
935;DHT22;454;53.254;10.400;2023-04-19T13:33:19;13.10;80.20
935;DHT22;454;53.254;10.400;2023-04-19T13:35:46;13.10;80.60
935;DHT22;454;53.254;10.400;2023-04-19T13:38:12;13.00;80.60
935;DHT22;454;53.254;10.400;2023-04-19T13:40:39;13.00;81.40
935;DHT22;454;53.254;10.400;2023-04-19T13:43:06;13.10;81.90
935;DHT22;454;53.254;10.400;2023-04-19T13:45:32;13.20;81.00
935;DHT22;454;53.254;10.400;2023-04-19T13:48:01;13.00;81.10
935;DHT22;454;53.254;10.400;2023-04-19T13:50:28;13.00;81.80
935;DHT22;454;53.254;10.400;2023-04-19T13:52:55;13.20;81.00
935;DHT22;454;53.254;10.400;2023-04-19T13:55:22;13.30;79.60
935;DHT22;454;53.254;10.400;2023-04-19T13:57:48;13.30;79.40
935;DHT22;454;53.254;10.400;2023-04-19T14:00:16;13.30;80.80
935;DHT22;454;53.254;10.400;2023-04-19T14:02:43;13.40;79.80
935;DHT22;454;53.254;10.400;2023-04-19T14:05:11;13.20;79.70
935;DHT22;454;53.254;10.400;2023-04-19T14:07:39;13.20;78.90
935;DHT22;454;53.254;10.400;2023-04-19T14:10:07;13.20;78.80
935;DHT22;454;53.254;10.400;2023-04-19T14:12:35;13.20;80.60
935;DHT22;454;53.254;10.400;2023-04-19T14:15:01;13.30;79.50
935;DHT22;454;53.254;10.400;2023-04-19T14:17:28;13.40;77.30
935;DHT22;454;53.254;10.400;2023-04-19T14:19:55;13.40;76.90
935;DHT22;454;53.254;10.400;2023-04-19T14:22:23;13.30;77.50
935;DHT22;454;53.254;10.400;2023-04-19T14:24:50;13.20;79.10
935;DHT22;454;53.254;10.400;2023-04-19T14:27:16;13.20;78.90
935;DHT22;454;53.254;10.400;2023-04-19T14:29:43;13.10;78.30
935;DHT22;454;53.254;10.400;2023-04-19T14:32:10;13.00;78.20
935;DHT22;454;53.254;10.400;2023-04-19T14:34:37;13.00;77.20
935;DHT22;454;53.254;10.400;2023-04-19T14:37:03;13.00;76.80
935;DHT22;454;53.254;10.400;2023-04-19T14:39:31;13.00;76.30
935;DHT22;454;53.254;10.400;2023-04-19T14:41:58;13.00;75.70
935;DHT22;454;53.254;10.400;2023-04-19T14:44:25;13.10;75.90
935;DHT22;454;53.254;10.400;2023-04-19T14:46:52;13.20;73.60
935;DHT22;454;53.254;10.400;2023-04-19T14:49:18;13.20;74.40
935;DHT22;454;53.254;10.400;2023-04-19T14:51:45;13.10;73.50
935;DHT22;454;53.254;10.400;2023-04-19T14:54:12;13.10;73.80
935;DHT22;454;53.254;10.400;2023-04-19T14:56:40;13.00;74.90
935;DHT22;454;53.254;10.400;2023-04-19T14:59:06;13.00;75.10
935;DHT22;454;53.254;10.400;2023-04-19T15:01:33;13.00;76.10
935;DHT22;454;53.254;10.400;2023-04-19T15:04:00;13.20;76.50
935;DHT22;454;53.254;10.400;2023-04-19T15:06:27;13.30;73.00
935;DHT22;454;53.254;10.400;2023-04-19T15:08:53;13.20;74.20
935;DHT22;454;53.254;10.400;2023-04-19T15:11:20;13.10;75.40
935;DHT22;454;53.254;10.400;2023-04-19T15:13:48;13.10;75.50
935;DHT22;454;53.254;10.400;2023-04-19T15:16:15;13.10;75.90
935;DHT22;454;53.254;10.400;2023-04-19T15:18:42;13.10;76.10
935;DHT22;454;53.254;10.400;2023-04-19T15:21:09;13.10;76.40
935;DHT22;454;53.254;10.400;2023-04-19T15:23:35;13.00;74.90
935;DHT22;454;53.254;10.400;2023-04-19T15:26:02;12.90;75.10
935;DHT22;454;53.254;10.400;2023-04-19T15:28:32;13.00;75.90
935;DHT22;454;53.254;10.400;2023-04-19T15:31:03;13.10;76.00
935;DHT22;454;53.254;10.400;2023-04-19T15:33:30;13.30;74.30
935;DHT22;454;53.254;10.400;2023-04-19T15:35:57;13.30;73.80
935;DHT22;454;53.254;10.400;2023-04-19T15:38:27;13.30;75.50
935;DHT22;454;53.254;10.400;2023-04-19T15:40:55;13.20;75.70
935;DHT22;454;53.254;10.400;2023-04-19T15:43:23;13.20;77.10
935;DHT22;454;53.254;10.400;2023-04-19T15:45:51;13.20;77.80
935;DHT22;454;53.254;10.400;2023-04-19T15:48:19;13.20;76.20
935;DHT22;454;53.254;10.400;2023-04-19T15:50:46;13.10;75.70
935;DHT22;454;53.254;10.400;2023-04-19T15:53:13;12.90;75.50
935;DHT22;454;53.254;10.400;2023-04-19T15:55:39;12.90;75.40
935;DHT22;454;53.254;10.400;2023-04-19T15:58:06;12.80;74.60
935;DHT22;454;53.254;10.400;2023-04-19T16:00:33;12.70;75.70
935;DHT22;454;53.254;10.400;2023-04-19T16:03:00;12.70;75.60
935;DHT22;454;53.254;10.400;2023-04-19T16:05:28;12.70;75.80
935;DHT22;454;53.254;10.400;2023-04-19T16:08:02;12.70;74.40
935;DHT22;454;53.254;10.400;2023-04-19T16:10:29;12.60;74.50
935;DHT22;454;53.254;10.400;2023-04-19T16:12:55;12.60;73.70
935;DHT22;454;53.254;10.400;2023-04-19T16:15:22;12.50;73.90
935;DHT22;454;53.254;10.400;2023-04-19T16:17:50;12.60;75.10
935;DHT22;454;53.254;10.400;2023-04-19T16:20:17;12.50;73.50
935;DHT22;454;53.254;10.400;2023-04-19T16:22:46;12.40;73.10
935;DHT22;454;53.254;10.400;2023-04-19T16:25:13;12.30;72.80
935;DHT22;454;53.254;10.400;2023-04-19T16:27:42;12.20;70.80
935;DHT22;454;53.254;10.400;2023-04-19T16:30:09;12.20;69.80
935;DHT22;454;53.254;10.400;2023-04-19T16:32:36;12.20;66.80
935;DHT22;454;53.254;10.400;2023-04-19T16:35:04;12.10;64.60
935;DHT22;454;53.254;10.400;2023-04-19T16:37:31;12.00;61.60
935;DHT22;454;53.254;10.400;2023-04-19T16:40:03;11.90;61.60
935;DHT22;454;53.254;10.400;2023-04-19T16:42:31;11.90;61.30
935;DHT22;454;53.254;10.400;2023-04-19T16:44:58;11.90;61.90
935;DHT22;454;53.254;10.400;2023-04-19T16:47:24;11.90;62.50
935;DHT22;454;53.254;10.400;2023-04-19T16:49:51;11.80;62.80
935;DHT22;454;53.254;10.400;2023-04-19T16:52:18;11.80;62.30
935;DHT22;454;53.254;10.400;2023-04-19T16:54:44;11.70;62.20
935;DHT22;454;53.254;10.400;2023-04-19T16:57:12;11.70;62.60
935;DHT22;454;53.254;10.400;2023-04-19T16:59:39;11.70;63.30
935;DHT22;454;53.254;10.400;2023-04-19T17:02:06;11.60;62.30
935;DHT22;454;53.254;10.400;2023-04-19T17:04:35;11.50;62.20
935;DHT22;454;53.254;10.400;2023-04-19T17:07:02;11.50;62.50
935;DHT22;454;53.254;10.400;2023-04-19T17:09:28;11.40;62.30
935;DHT22;454;53.254;10.400;2023-04-19T17:11:56;11.40;63.10
935;DHT22;454;53.254;10.400;2023-04-19T17:14:24;11.40;63.70
935;DHT22;454;53.254;10.400;2023-04-19T17:16:50;11.30;63.90
935;DHT22;454;53.254;10.400;2023-04-19T17:19:17;11.30;63.60
935;DHT22;454;53.254;10.400;2023-04-19T17:21:44;11.20;63.30
935;DHT22;454;53.254;10.400;2023-04-19T17:24:11;11.20;64.10
935;DHT22;454;53.254;10.400;2023-04-19T17:26:38;11.20;65.10
935;DHT22;454;53.254;10.400;2023-04-19T17:29:05;11.10;64.20
935;DHT22;454;53.254;10.400;2023-04-19T17:31:33;11.10;64.70
935;DHT22;454;53.254;10.400;2023-04-19T17:33:59;11.10;65.60
935;DHT22;454;53.254;10.400;2023-04-19T17:36:26;11.10;66.20
935;DHT22;454;53.254;10.400;2023-04-19T17:38:53;11.00;66.90
935;DHT22;454;53.254;10.400;2023-04-19T17:41:20;11.00;67.60
935;DHT22;454;53.254;10.400;2023-04-19T17:43:47;11.00;68.30
935;DHT22;454;53.254;10.400;2023-04-19T17:46:14;11.00;69.40
935;DHT22;454;53.254;10.400;2023-04-19T17:48:42;10.90;70.20
935;DHT22;454;53.254;10.400;2023-04-19T17:51:08;10.90;71.00
935;DHT22;454;53.254;10.400;2023-04-19T17:53:35;10.80;71.70
935;DHT22;454;53.254;10.400;2023-04-19T17:56:02;10.80;72.40
935;DHT22;454;53.254;10.400;2023-04-19T17:58:29;10.70;73.50
935;DHT22;454;53.254;10.400;2023-04-19T18:00:56;10.70;74.20
935;DHT22;454;53.254;10.400;2023-04-19T18:03:23;10.60;75.10
935;DHT22;454;53.254;10.400;2023-04-19T18:05:51;10.60;76.40
935;DHT22;454;53.254;10.400;2023-04-19T18:08:17;10.60;76.80
935;DHT22;454;53.254;10.400;2023-04-19T18:10:44;10.50;77.20
935;DHT22;454;53.254;10.400;2023-04-19T18:13:12;10.50;78.00
935;DHT22;454;53.254;10.400;2023-04-19T18:15:39;10.50;78.20
935;DHT22;454;53.254;10.400;2023-04-19T18:18:05;10.40;78.50
935;DHT22;454;53.254;10.400;2023-04-19T18:20:32;10.40;79.00
935;DHT22;454;53.254;10.400;2023-04-19T18:23:00;10.40;78.60
935;DHT22;454;53.254;10.400;2023-04-19T18:25:27;10.40;78.50
935;DHT22;454;53.254;10.400;2023-04-19T18:27:54;10.30;79.00
935;DHT22;454;53.254;10.400;2023-04-19T18:30:21;10.30;79.60
935;DHT22;454;53.254;10.400;2023-04-19T18:32:47;10.30;80.00
935;DHT22;454;53.254;10.400;2023-04-19T18:35:14;10.30;80.20
935;DHT22;454;53.254;10.400;2023-04-19T18:37:41;10.30;80.30
935;DHT22;454;53.254;10.400;2023-04-19T18:40:10;10.30;80.80
935;DHT22;454;53.254;10.400;2023-04-19T18:42:37;10.30;81.20
935;DHT22;454;53.254;10.400;2023-04-19T18:45:04;10.20;81.50
935;DHT22;454;53.254;10.400;2023-04-19T18:47:31;10.20;81.60
935;DHT22;454;53.254;10.400;2023-04-19T18:49:58;10.30;81.90
935;DHT22;454;53.254;10.400;2023-04-19T18:52:25;10.20;82.60
935;DHT22;454;53.254;10.400;2023-04-19T18:54:51;10.20;82.80
935;DHT22;454;53.254;10.400;2023-04-19T18:57:21;10.20;82.60
935;DHT22;454;53.254;10.400;2023-04-19T18:59:48;10.20;81.70
935;DHT22;454;53.254;10.400;2023-04-19T19:02:15;10.20;82.40
935;DHT22;454;53.254;10.400;2023-04-19T19:04:42;10.20;82.70
935;DHT22;454;53.254;10.400;2023-04-19T19:07:08;10.20;82.30
935;DHT22;454;53.254;10.400;2023-04-19T19:09:35;10.20;81.90
935;DHT22;454;53.254;10.400;2023-04-19T19:12:02;10.20;82.50
935;DHT22;454;53.254;10.400;2023-04-19T19:14:30;10.20;82.60
935;DHT22;454;53.254;10.400;2023-04-19T19:17:00;10.20;82.20
935;DHT22;454;53.254;10.400;2023-04-19T19:19:26;10.20;82.20
935;DHT22;454;53.254;10.400;2023-04-19T19:21:53;10.20;82.40
935;DHT22;454;53.254;10.400;2023-04-19T19:24:20;10.10;82.60
935;DHT22;454;53.254;10.400;2023-04-19T19:26:46;10.10;82.60
935;DHT22;454;53.254;10.400;2023-04-19T19:29:15;10.10;82.80
935;DHT22;454;53.254;10.400;2023-04-19T19:31:43;10.10;83.00
935;DHT22;454;53.254;10.400;2023-04-19T19:34:10;10.10;83.60
935;DHT22;454;53.254;10.400;2023-04-19T19:36:36;10.10;84.10
935;DHT22;454;53.254;10.400;2023-04-19T19:39:03;10.10;85.00
935;DHT22;454;53.254;10.400;2023-04-19T19:41:30;10.10;85.70
935;DHT22;454;53.254;10.400;2023-04-19T19:43:57;10.10;85.10
935;DHT22;454;53.254;10.400;2023-04-19T19:46:24;10.10;86.30
935;DHT22;454;53.254;10.400;2023-04-19T19:48:52;10.00;87.00
935;DHT22;454;53.254;10.400;2023-04-19T19:51:18;10.00;88.00
935;DHT22;454;53.254;10.400;2023-04-19T19:53:46;9.90;88.90
935;DHT22;454;53.254;10.400;2023-04-19T19:56:12;9.90;89.60
935;DHT22;454;53.254;10.400;2023-04-19T19:58:39;9.90;90.00
935;DHT22;454;53.254;10.400;2023-04-19T20:01:06;9.90;90.20
935;DHT22;454;53.254;10.400;2023-04-19T20:03:33;9.90;90.10
935;DHT22;454;53.254;10.400;2023-04-19T20:06:01;9.90;90.20
935;DHT22;454;53.254;10.400;2023-04-19T20:08:27;9.90;90.00
935;DHT22;454;53.254;10.400;2023-04-19T20:10:54;9.90;90.00
935;DHT22;454;53.254;10.400;2023-04-19T20:13:21;9.90;90.00
935;DHT22;454;53.254;10.400;2023-04-19T20:15:47;10.00;89.50
935;DHT22;454;53.254;10.400;2023-04-19T20:18:14;10.00;90.20
935;DHT22;454;53.254;10.400;2023-04-19T20:20:41;10.00;91.40
935;DHT22;454;53.254;10.400;2023-04-19T20:23:09;9.90;93.80
935;DHT22;454;53.254;10.400;2023-04-19T20:25:36;9.90;96.00
935;DHT22;454;53.254;10.400;2023-04-19T20:28:03;9.80;98.00